ADDS METAR Data INFO
IDs: Format: Raw Decoded Include TAF

Data at: 1525 UTC 18 Jun 2018

KTZR 181450Z 27011G17KT 10SM SKC 31/22 A3009
KTZR 181345Z 25007G15KT 10SM SKC 29/23 A3009
KTZR 181245Z 24005KT 10SM SKC 27/23 A3010
KTZR 181150Z 00000KT 10SM SKC 24/23 A3009
KTZR 181115Z 00000KT 10SM SKC 23/20 A3009
KTZR 181055Z AUTO 00000KT 3SM BR CLR 22/22 A3008 RMK AO2 T02200216
KTZR 181035Z AUTO 24003KT 3SM BR CLR 22/22 A3008 RMK AO2 T02170215
KTZR 181020Z AUTO 21003KT 3SM BR CLR 22/22 A3008 RMK AO2 T02170215
KTZR 180955Z AUTO 00000KT 4SM BR CLR 22/22 A3008 RMK AO2 T02200218
KTZR 180935Z AUTO 20003KT 4SM BR CLR 22/22 A3008 RMK AO2 T02220221
KTZR 180915Z AUTO 00000KT 1/2SM FG VV005 22/22 A3008 RMK AO2 T02230222
KTZR 180855Z AUTO 00000KT 3SM BR CLR 23/23 A3008 RMK AO2 T02260225
KTZR 180835Z AUTO 22003KT 3SM BR CLR 23/23 A3008 RMK AO2 T02260225
KTZR 180815Z AUTO 00000KT 4SM BR CLR 23/23 A3008 RMK AO2 T02260225
KTZR 180755Z AUTO 18003KT 4SM BR CLR 23/23 A3007 RMK AO2 T02290226
KTZR 180735Z AUTO 18003KT 2 1/2SM BR CLR 23/23 A3007 RMK AO2 T02270225
KTZR 180715Z AUTO 00000KT 4SM BR CLR 23/23 A3008 RMK AO2 T02290226
KTZR 180655Z AUTO 00000KT 4SM BR CLR 23/23 A3008 RMK AO2 T02300225
KTZR 180635Z AUTO 18003KT 7SM CLR 23/23 A3009 RMK AO2 T02310225
KTZR 180615Z AUTO 20003KT 7SM CLR 23/23 A3009 RMK AO2 T02340226
KTZR 180555Z AUTO 18003KT 7SM CLR 24/23 A3009 RMK AO2 T02370228 10309 20237 403330213
KTZR 180535Z AUTO 00000KT 7SM CLR 24/23 A3010 RMK AO2 T02400230
KTZR 180515Z AUTO 00000KT 7SM CLR 24/23 A3009 RMK AO2 T02410230
KTZR 180455Z AUTO 18003KT 10SM CLR 24/23 A3009 RMK AO2 T02430231
KTZR 180435Z AUTO 19004KT 10SM CLR 24/23 A3008 RMK AO2 T02440230
KTZR 180415Z AUTO 19003KT 10SM CLR 25/23 A3009 RMK AO2 T02460230
KTZR 180355Z AUTO 19003KT 10SM CLR 25/23 A3008 RMK AO2 T02470230
KTZR 180335Z AUTO 19004KT 10SM CLR 25/23 A3008 RMK AO2 T02510231
KTZR 180315Z AUTO 18004KT 10SM CLR 25/24 A3008 RMK AO2 T02530235
KTZR 180255Z AUTO 19004KT 10SM CLR 26/24 A3008 RMK AO2 T02570237
KTZR 180235Z AUTO 19005KT 10SM CLR 26/24 A3007 RMK AO2 T02620240
KTZR 180215Z AUTO 19012KT 10SM CLR 27/24 A3007 RMK AO2 T02660241
KTZR 180155Z AUTO 19013KT 10SM CLR 27/24 A3006 RMK AO2 T02720243
KTZR 180135Z AUTO 20010KT 10SM CLR 28/24 A3006 RMK AO2 T02750240
KTZR 180115Z AUTO 20009KT 10SM CLR 28/24 A3005 RMK AO2 T02800238
KTZR 180055Z AUTO 21008KT 10SM CLR 29/24 A3006 RMK AO2 T02870238
KTZR 180035Z AUTO 20012KT 10SM CLR 29/24 A3005 RMK AO2 T02930237
KTZR 180015Z AUTO 20012KT 10SM CLR 30/24 A3005 RMK AO2 T02990235
KTZR 172247Z 20014KT 10SM SCT060 32/22 A3006
KTZR 172147Z 23008KT 10SM SCT055 33/22 A3007
KTZR 172047Z 26004KT 10SM SKC 33/21 A3008
KTZR 171950Z 20004KT 10SM SKC 33/22 A3009
KTZR 171847Z 26007KT 10SM SKC 33/22 A3009
KTZR 171747Z 29009KT 10SM SCT065 SCT080 31/22 A3011
KTZR 171655Z 28013KT 10SM SCT046 SCT050 32/22 A3012
KTZR 171545Z 29008G14KT 10SM SCT037 SCT048 31/23 A3013
KTZR 171445Z 29011KT 10SM SKC 30/23 A3013
KTZR 171355Z 29011KT 10SM SCT045 29/23 A3013
KTZR 171245Z 29007KT 10SM SKC 27/22 A3011
KTZR 171145Z 26003KT 10SM SKC 24/21 A3010
KTZR 171125Z 23003KT 10SM SKC 24/21 A3009
KTZR 171055Z AUTO 25003KT 10SM SCT003 23/21 A3009 RMK AO2 T02260205
KTZR 171035Z AUTO 26004KT 10SM CLR 23/20 A3009 RMK AO2 T02300204
KTZR 171015Z AUTO 27003KT 10SM CLR 23/20 A3008 RMK AO2 T02270202
KTZR 170955Z AUTO 26003KT 10SM CLR 23/20 A3008 RMK AO2 T02270201
KTZR 170935Z AUTO 00000KT 10SM CLR 22/20 A3007 RMK AO2 T02230200
KTZR 170915Z AUTO 27003KT 10SM CLR 22/20 A3006 RMK AO2 T02240200
KTZR 170855Z AUTO 26004KT 10SM CLR 23/20 A3005 RMK AO2 T02250200
KTZR 170835Z AUTO 27003KT 10SM CLR 22/20 A3005 RMK AO2 T02190196
KTZR 170815Z AUTO 25003KT 10SM CLR 22/20 A3004 RMK AO2 T02190197
KTZR 170755Z AUTO 00000KT 10SM CLR 21/20 A3004 RMK AO2 T02140200
KTZR 170735Z AUTO 21003KT 10SM CLR 22/20 A3004 RMK AO2 T02160202
KTZR 170715Z AUTO 00000KT 10SM CLR 22/20 A3004 RMK AO2 T02210200
KTZR 170655Z AUTO 00000KT 10SM CLR 22/20 A3004 RMK AO2 T02170201
KTZR 170635Z AUTO 00000KT 10SM CLR 22/20 A3004 RMK AO2 T02190202
KTZR 170615Z AUTO 00000KT 10SM CLR 23/20 A3005 RMK AO2 T02270202
KTZR 170555Z AUTO 18003KT 10SM CLR 23/21 A3006 RMK AO2 T02260205 10285 20225 403170171
KTZR 170535Z AUTO 16003KT 10SM CLR 23/22 A3005 RMK AO2 T02270215
KTZR 170515Z AUTO 00000KT 10SM CLR 23/22 A3005 RMK AO2 T02290215
KTZR 170455Z AUTO 00000KT 10SM CLR 23/22 A3006 RMK AO2 T02280217
KTZR 170435Z AUTO 00000KT 10SM CLR 23/22 A3005 RMK AO2 T02300218
KTZR 170415Z AUTO 21003KT 10SM CLR 23/22 A3006 RMK AO2 T02310217
KTZR 170355Z AUTO 00000KT 10SM CLR 24/21 A3006 RMK AO2 T02380208
KTZR 170335Z AUTO 00000KT 10SM CLR 24/21 A3006 RMK AO2 T02410213